Anacortes, Washington
Current Conditions -  °F | °C
As of 4:56 PM on Tuesday 21 Oct 2014 (Local Time) from KNUW Reporting Station
Broken Clouds Broken Clouds  
Wind Chill: 62°   Ceiling: 9000
Heat Index: 62°   Visibility: 10mi
Dew Point: 49°   Wind: 29mph
Humidity: 62%   Direction: 140°SE
Pressure: 29.81"   Gusts: 37mph
Location:  48.51°N, 122.61°W
Report Text: KNUW 212356Z 14025G32KT 10SM SCT025 BKN090 BKN150 BKN250 17/09 A2981 RMK AO2 PK WND 15038/2259 SLP097 T01670094 10183 20150 58013 $
Loading
Personal Weather Stations






























Interactive Weather Map
Tropical Storm Tracking
New forecast layout! Learn more

10-Day Weather Forecast

Advertisements
Track Severe Weather on mobile